首页
METAR-TAF:

METAR-TAF

机场 :

巴亞馬雷, 罗马尼亚

纬度: 47-40N, 经度: 023-35E, 海拔: 218米

当前天气观测

该预报发布于41分钟前的07:30 UTC
风速3节,风向东南,在之间变化
温度 23°C
湿度 65%
气压 1013 hPa
能见度10公里或以上

METAR: LRBM 150730Z AUTO 14003KT 100V170 9999 FEW120/// BKN140/// BKN170/// 23/16 Q1013

时间: 11:11 (08:11 UTC)

预报

该预报发布于18小时和11分钟前的14:00 UTC
预报有效从14日的 15点(UTC)到 15日的 00点(UTC)
风速4节,风向多变
能见度10公里或以上
1500米以下无云,无积雨云
几率 30% :
短暂存在
从 14日的 15点(UTC)到 14日的 18点(UTC)
散云层高于4000英尺, 积雨云.

TAF: LRBM 141400Z 1415/1500 VRB04KT CAVOK PROB30 TEMPO 1415/1418 SCT040CB

超过4000个机场的气象观测和天气预报(METAR&TAF报告)。

可查询的气象台以黄色和红色小点在地图上表示。

将鼠标移到小点上方,可查看气象台名称。

然后点击查看天气观测和预报。

如需切换地图:点击带黑十字的绿色按钮放大地图;点击带横线的绿色按钮缩小地图;或者点击绿色箭头查看邻近地区的地图。


METAR-TAF: